Time;durP1;ratioP1;P1;durP2;ratioP2;P2;SDS_P1;SDS_P2;PMS_P1;PMS_P2;Temp;Humidity;BMP_temperature;BMP_pressure;BME280_temperature;BME280_humidity;BME280_pressure;Samples;Min_cycle;Max_cycle;Signal;HPM_P1;HPM_P2
2021/06/15 10:13:13;;;;;;;67.67;14.00;;;26.60;1.10;;;;;;6127851;23;20218;-80
2021/06/15 10:15:52;;;;;;;67.63;9.83;;;27.10;1.30;;;;;;6137204;23;20396;-77
2021/06/15 10:18:26;;;;;;;69.80;15.73;;;27.20;1.00;;;;;;6137059;23;20738;-82
2021/06/15 10:21:47;;;;;;;68.37;15.23;;;27.20;1.00;;;;;;6136844;23;20405;-82
2021/06/15 10:24:25;;;;;;;;;;;;;;;;;;;;;
2021/06/15 10:26:52;;;;;;;71.87;12.73;;;26.90;1.00;;;;;;6068598;23;20389;-80
2021/06/15 10:29:27;;;;;;;67.10;15.00;;;27.00;1.00;;;;;;6127073;23;20382;-81
2021/06/15 10:31:57;;;;;;;66.97;14.10;;;27.20;1.00;;;;;;6137334;23;20381;-81
2021/06/15 10:34:57;;;;;;;68.30;13.07;;;27.20;1.00;;;;;;6125980;23;20384;-81
2021/06/15 10:37:45;;;;;;;66.83;8.13;;;27.30;1.00;;;;;;6136800;23;20418;-80
2021/06/15 10:40:53;;;;;;;66.63;12.40;;;28.30;1.00;;;;;;6126904;23;20914;-81
2021/06/15 10:43:30;;;;;;;71.17;21.40;;;28.30;1.00;;;;;;6135048;23;20802;-80
2021/06/15 10:49:31;;;;;;;68.77;12.77;;;27.70;1.00;;;;;;6122005;23;20418;-81
2021/06/15 10:53:02;;;;;;;;;;;;;;;;;;;;;
2021/06/15 10:56:06;;;;;;;70.57;14.10;;;27.80;1.00;;;;;;6100076;23;20413;-82
2021/06/15 11:02:10;;;;;;;75.22;12.85;;;27.70;1.00;;;;;;6109648;23;20898;-81
2021/06/15 11:04:37;;;;;;;69.17;15.77;;;27.60;1.00;;;;;;6135165;23;20481;-80
2021/06/15 11:07:25;;;;;;;72.83;18.97;;;27.50;1.00;;;;;;6136745;23;20413;-80
2021/06/15 11:09:52;;;;;;;69.90;16.13;;;28.20;1.00;;;;;;6136609;23;20385;-81
2021/06/15 11:12:23;;;;;;;81.07;15.53;;;27.90;1.00;;;;;;6126795;23;20814;-80
2021/06/15 11:15:20;;;;;;;68.97;8.87;;;28.00;1.00;;;;;;6127123;23;20435;-81
2021/06/15 11:17:56;;;;;;;68.33;13.73;;;28.40;1.00;;;;;;6136415;23;20717;-81
2021/06/15 11:20:34;;;;;;;69.80;15.53;;;28.50;1.00;;;;;;6125724;23;20902;-81
2021/06/15 11:23:21;;;;;;;70.70;8.40;;;28.50;1.00;;;;;;6136647;23;20799;-80
2021/06/15 11:25:50;;;;;;;74.07;18.43;;;28.80;1.00;;;;;;6126999;23;20398;-81
2021/06/15 11:28:46;;;;;;;71.60;9.17;;;28.10;1.00;;;;;;6136464;23;20378;-80
2021/06/15 11:31:30;;;;;;;80.10;16.77;;;28.10;1.00;;;;;;6136630;23;20477;-80
2021/06/15 11:34:14;;;;;;;71.67;9.77;;;29.00;1.00;;;;;;6125398;23;20378;-80
2021/06/15 11:36:44;;;;;;;74.50;18.97;;;28.10;1.00;;;;;;6126605;23;20876;-81
2021/06/15 11:39:34;;;;;;;70.77;15.47;;;27.70;1.00;;;;;;6126904;23;20381;-80
2021/06/15 11:42:25;;;;;;;71.00;16.17;;;28.10;1.00;;;;;;6136141;23;20495;-81
2021/06/15 11:45:00;;;;;;;70.40;9.40;;;28.40;1.00;;;;;;6126900;23;20494;-81
2021/06/15 11:47:30;;;;;;;68.47;7.40;;;28.40;1.00;;;;;;6126870;23;20376;-80
2021/06/15 11:50:28;;;;;;;70.27;8.77;;;28.80;1.00;;;;;;6135009;23;20411;-80
2021/06/15 11:53:01;;;;;;;71.20;10.53;;;29.10;1.00;;;;;;6126743;23;20402;-81
2021/06/15 11:55:31;;;;;;;69.63;8.23;;;28.50;1.00;;;;;;6126732;23;20399;-79
2021/06/15 11:58:05;;;;;;;70.93;16.00;;;28.70;1.00;;;;;;6126705;23;20450;-80
2021/06/15 12:00:33;;;;;;;69.80;8.70;;;29.60;1.00;;;;;;6135889;23;20956;-80
2021/06/15 12:03:06;;;;;;;70.27;8.47;;;30.30;1.00;;;;;;6124252;23;20405;-81
2021/06/15 12:05:35;;;;;;;73.20;10.67;;;29.80;1.00;;;;;;6134534;23;20909;-81
2021/06/15 12:08:13;;;;;;;72.57;13.17;;;30.60;1.00;;;;;;6126733;23;20399;-82
2021/06/15 12:10:41;;;;;;;72.87;11.20;;;30.70;1.00;;;;;;6136473;23;20433;-80
2021/06/15 12:13:11;;;;;;;75.20;10.80;;;30.20;1.00;;;;;;6122947;23;20457;-80
2021/06/15 12:15:47;;;;;;;77.97;10.80;;;29.60;1.00;;;;;;6126386;23;20409;-80
2021/06/15 12:18:28;;;;;;;71.57;9.40;;;28.90;1.00;;;;;;6126491;23;20712;-80
2021/06/15 12:21:00;;;;;;;70.67;10.30;;;29.20;1.00;;;;;;6126049;23;20683;-81
2021/06/15 12:23:30;;;;;;;71.40;10.67;;;29.60;1.00;;;;;;6126415;23;21048;-79
2021/06/15 12:26:06;;;;;;;70.37;15.17;;;29.20;1.00;;;;;;6126695;23;20430;-81
2021/06/15 12:28:33;;;;;;;70.77;9.27;;;29.80;1.00;;;;;;6126550;23;20381;-81
2021/06/15 12:31:12;;;;;;;72.23;18.53;;;30.90;1.00;;;;;;6125674;23;20425;-80
2021/06/15 12:33:40;;;;;;;91.50;61.83;;;29.80;1.00;;;;;;6124921;23;20386;-80
2021/06/15 12:36:10;;;;;;;86.60;49.00;;;28.90;1.00;;;;;;6125942;23;20402;-80
2021/06/15 12:38:38;;;;;;;76.37;16.47;;;28.60;1.00;;;;;;6136183;23;20909;-80
2021/06/15 12:41:08;;;;;;;71.77;8.83;;;28.60;1.00;;;;;;6126364;23;20471;-80
2021/06/15 12:43:35;;;;;;;72.23;18.03;;;28.00;1.00;;;;;;6126386;23;20406;-80
2021/06/15 12:46:09;;;;;;;72.17;15.87;;;28.00;1.00;;;;;;6126472;23;20486;-80
2021/06/15 12:48:44;;;;;;;70.80;12.63;;;27.80;1.00;;;;;;6124333;23;20901;-79
2021/06/15 12:51:15;;;;;;;70.40;18.37;;;27.50;1.00;;;;;;6125999;23;20406;-79
2021/06/15 12:53:42;;;;;;;77.87;23.93;;;27.30;1.00;;;;;;6126045;23;20403;-80
2021/06/15 12:56:24;;;;;;;73.43;24.30;;;27.10;1.00;;;;;;6126362;23;20378;-80
2021/06/15 12:58:53;;;;;;;74.10;29.70;;;26.80;1.00;;;;;;6135798;23;20457;-80
2021/06/15 13:01:23;;;;;;;68.27;8.37;;;26.60;1.00;;;;;;6136077;23;20906;-79
2021/06/15 13:03:53;;;;;;;68.63;9.70;;;26.70;1.00;;;;;;6134758;23;21304;-80
2021/06/15 13:06:23;;;;;;;68.00;16.97;;;26.90;1.00;;;;;;6126376;23;20381;-79
2021/06/15 13:08:51;;;;;;;68.07;12.93;;;26.70;1.00;;;;;;6136202;23;20865;-79
2021/06/15 13:11:20;;;;;;;69.97;9.20;;;26.50;1.00;;;;;;6126156;23;20406;-84
2021/06/15 13:13:59;;;;;;;69.97;16.87;;;26.40;1.00;;;;;;6125665;23;20403;-79
2021/06/15 13:16:41;;;;;;;69.40;15.37;;;26.70;1.00;;;;;;6136219;23;20876;-79
2021/06/15 13:19:10;;;;;;;67.23;14.60;;;26.60;1.00;;;;;;6134583;23;20377;-79
2021/06/15 13:21:50;;;;;;;70.40;9.73;;;26.90;1.00;;;;;;6126010;23;20451;-80
2021/06/15 13:24:18;;;;;;;68.63;8.87;;;26.60;1.00;;;;;;6126150;23;20428;-79
2021/06/15 13:26:49;;;;;;;67.70;8.10;;;26.50;1.00;;;;;;6135561;23;20460;-79
2021/06/15 13:29:17;;;;;;;66.10;10.67;;;26.60;1.00;;;;;;6126216;23;20460;-79
2021/06/15 13:31:44;;;;;;;69.60;16.37;;;26.90;1.00;;;;;;6126249;23;20378;-79
2021/06/15 13:34:14;;;;;;;70.97;13.90;;;27.20;1.00;;;;;;6124669;23;20410;-79
2021/06/15 13:36:41;;;;;;;71.47;10.17;;;27.70;1.00;;;;;;6135875;23;20382;-79
2021/06/15 13:39:11;;;;;;;72.57;9.30;;;28.00;1.00;;;;;;6126045;23;20386;-79
2021/06/15 13:41:39;;;;;;;69.17;13.07;;;28.40;1.00;;;;;;6126631;23;20844;-79
2021/06/15 13:44:06;;;;;;;71.27;13.77;;;28.20;1.00;;;;;;6138724;23;20407;-78
2021/06/15 13:46:33;;;;;;;84.60;48.83;;;29.30;1.00;;;;;;6128159;23;20410;-79
2021/06/15 13:49:01;;;;;;;73.50;8.73;;;28.80;1.00;;;;;;6125948;23;20403;-79
2021/06/15 13:51:28;;;;;;;70.70;14.90;;;28.80;1.00;;;;;;6128299;23;20446;-79
2021/06/15 13:53:55;;;;;;;72.70;18.50;;;28.70;1.00;;;;;;6127634;23;20445;-79
2021/06/15 13:56:25;;;;;;;77.53;20.47;;;28.20;1.00;;;;;;6128048;23;20377;-79
2021/06/15 13:58:53;;;;;;;69.67;7.83;;;28.20;1.00;;;;;;6127856;23;20454;-79
2021/06/15 14:01:20;;;;;;;72.03;14.50;;;28.50;1.00;;;;;;6127276;23;20453;-79
2021/06/15 14:03:46;;;;;;;67.07;9.33;;;28.70;1.00;;;;;;6101190;23;21472;-78
2021/06/15 14:06:13;;;;;;;67.17;7.50;;;28.80;1.00;;;;;;6127823;23;20734;-78
2021/06/15 14:08:41;;;;;;;68.90;7.10;;;28.90;1.00;;;;;;6127724;23;20417;-79
2021/06/15 14:11:08;;;;;;;72.37;19.13;;;29.00;1.00;;;;;;6127499;23;20407;-79
2021/06/15 14:13:37;;;;;;;71.50;12.63;;;29.70;1.00;;;;;;6127550;23;20407;-79
2021/06/15 14:16:04;;;;;;;72.10;18.17;;;29.10;1.00;;;;;;6137197;23;20880;-79
2021/06/15 14:18:32;;;;;;;70.87;16.77;;;28.90;1.00;;;;;;6126626;23;20861;-78
2021/06/15 14:20:59;;;;;;;69.97;10.27;;;28.90;1.00;;;;;;6127770;23;20486;-79
2021/06/15 14:23:25;;;;;;;74.70;8.20;;;28.60;1.00;;;;;;6127547;23;20384;-79
2021/06/15 14:25:52;;;;;;;70.60;8.20;;;28.60;1.00;;;;;;6127576;23;20417;-80
2021/06/15 14:28:19;;;;;;;73.37;18.33;;;28.80;1.00;;;;;;6136953;23;20440;-79
2021/06/15 14:30:47;;;;;;;70.00;10.50;;;28.70;1.00;;;;;;6127380;23;20399;-80
2021/06/15 14:33:14;;;;;;;72.90;10.80;;;28.40;1.00;;;;;;6127129;23;20869;-79
2021/06/15 14:35:43;;;;;;;68.90;7.80;;;28.70;1.00;;;;;;6125965;23;20430;-78
2021/06/15 14:38:10;;;;;;;71.27;9.50;;;28.90;1.00;;;;;;6127210;23;20403;-77
2021/06/15 14:40:36;;;;;;;71.30;8.23;;;29.20;1.00;;;;;;6127417;23;20432;-78
2021/06/15 14:43:03;;;;;;;68.40;8.77;;;28.90;1.00;;;;;;6127389;23;20413;-78
2021/06/15 14:45:30;;;;;;;72.07;9.57;;;29.00;1.00;;;;;;6127383;23;20399;-79
2021/06/15 14:47:59;;;;;;;70.60;11.30;;;28.70;1.00;;;;;;6127594;23;20999;-78
2021/06/15 14:50:26;;;;;;;71.93;18.20;;;28.60;1.00;;;;;;6125527;23;20384;-80
2021/06/15 14:52:53;;;;;;;73.87;15.57;;;28.20;1.00;;;;;;6136730;23;20389;-78
2021/06/15 14:55:20;;;;;;;70.43;17.70;;;28.80;1.00;;;;;;6127445;23;20380;-79
2021/06/15 14:57:47;;;;;;;75.80;7.70;;;28.60;1.00;;;;;;6126912;23;20963;-80
2021/06/15 15:00:15;;;;;;;68.93;10.10;;;28.70;1.00;;;;;;6137414;23;20381;-80
2021/06/15 15:02:42;;;;;;;67.70;8.37;;;28.30;1.00;;;;;;6127326;23;20517;-79
2021/06/15 15:05:11;;;;;;;67.57;9.43;;;28.70;1.00;;;;;;6125803;23;20429;-79
2021/06/15 15:07:43;;;;;;;71.30;7.40;;;28.50;1.00;;;;;;6127367;23;20410;-79
2021/06/15 15:10:11;;;;;;;73.00;8.83;;;28.40;1.00;;;;;;6127279;23;20730;-77
2021/06/15 15:12:37;;;;;;;69.10;10.33;;;28.30;1.00;;;;;;6126386;23;20997;-78
2021/06/15 15:15:05;;;;;;;68.47;8.27;;;28.20;1.00;;;;;;6127141;23;20420;-78
2021/06/15 15:17:32;;;;;;;69.27;11.27;;;28.00;1.00;;;;;;6127110;23;20792;-78
2021/06/15 15:19:59;;;;;;;69.77;14.70;;;28.20;1.00;;;;;;6125579;23;20382;-79
2021/06/15 15:22:27;;;;;;;69.50;6.93;;;28.70;1.00;;;;;;6126905;23;20454;-79
2021/06/15 15:24:54;;;;;;;70.00;8.03;;;28.70;1.00;;;;;;6127056;23;20723;-78
2021/06/15 15:27:21;;;;;;;67.80;7.50;;;28.70;1.00;;;;;;6127109;23;20435;-78
2021/06/15 15:29:47;;;;;;;68.90;7.97;;;28.70;1.00;;;;;;6127046;23;20770;-78
2021/06/15 15:32:14;;;;;;;68.47;6.87;;;29.10;1.00;;;;;;6127158;23;20490;-78
2021/06/15 15:34:42;;;;;;;68.33;6.40;;;30.10;1.00;;;;;;6125673;23;20435;-77
2021/06/15 15:37:09;;;;;;;69.70;7.57;;;29.90;1.00;;;;;;6126906;23;20407;-78
2021/06/15 15:39:38;;;;;;;68.60;7.80;;;29.70;1.00;;;;;;6126733;23;20404;-79
2021/06/15 15:42:06;;;;;;;72.40;8.87;;;29.80;1.00;;;;;;6126993;23;20481;-80
2021/06/15 15:44:33;;;;;;;70.07;7.63;;;29.60;1.00;;;;;;6126645;23;20485;-79
2021/06/15 15:47:01;;;;;;;70.97;8.07;;;29.30;1.00;;;;;;6126838;23;20389;-80
2021/06/15 15:49:28;;;;;;;71.20;9.07;;;30.00;1.00;;;;;;6125438;23;20403;-79
2021/06/15 15:51:55;;;;;;;74.10;16.97;;;29.70;1.00;;;;;;6126743;23;20494;-79
2021/06/15 15:54:22;;;;;;;69.23;9.10;;;29.60;1.00;;;;;;6126781;23;20490;-80
2021/06/15 15:56:50;;;;;;;69.07;7.60;;;29.30;1.00;;;;;;6136277;23;20408;-80
2021/06/15 15:59:18;;;;;;;72.47;9.77;;;28.90;1.00;;;;;;6127951;23;20431;-78
2021/06/15 16:01:44;;;;;;;70.30;12.50;;;28.60;1.00;;;;;;6126534;23;20505;-79
2021/06/15 16:04:11;;;;;;;70.00;9.80;;;28.40;1.00;;;;;;6135808;23;20478;-78
2021/06/15 16:06:38;;;;;;;67.90;7.63;;;28.10;1.00;;;;;;6126618;23;20438;-78
2021/06/15 16:09:05;;;;;;;69.77;11.83;;;28.50;1.00;;;;;;6126601;23;20482;-78
2021/06/15 16:11:32;;;;;;;70.27;18.07;;;28.30;1.00;;;;;;6126615;23;20414;-78
2021/06/15 16:14:01;;;;;;;71.27;16.60;;;28.10;1.00;;;;;;6126655;23;20378;-77
2021/06/15 16:16:27;;;;;;;70.50;14.87;;;28.20;1.00;;;;;;6126751;23;20477;-78
2021/06/15 16:18:54;;;;;;;69.80;18.57;;;28.10;1.00;;;;;;6125113;23;20388;-78
2021/06/15 16:21:21;;;;;;;73.90;16.17;;;27.90;1.00;;;;;;6126456;23;20441;-78
2021/06/15 16:23:48;;;;;;;71.60;17.20;;;27.80;1.00;;;;;;6126522;23;20470;-79
2021/06/15 16:26:16;;;;;;;70.40;9.30;;;27.70;1.00;;;;;;6126197;23;20952;-81
2021/06/15 16:28:42;;;;;;;67.90;13.87;;;27.50;1.00;;;;;;6126446;23;20490;-78
2021/06/15 16:31:11;;;;;;;68.63;7.73;;;27.60;1.00;;;;;;6126535;23;20385;-78
2021/06/15 16:33:37;;;;;;;68.73;6.80;;;27.80;1.00;;;;;;6134993;23;20500;-78
2021/06/15 16:36:05;;;;;;;68.20;7.47;;;27.90;1.00;;;;;;6126119;23;20446;-79
2021/06/15 16:38:32;;;;;;;66.10;6.70;;;28.20;1.00;;;;;;6126438;23;20735;-78
2021/06/15 16:40:59;;;;;;;70.03;6.50;;;28.00;1.00;;;;;;6126586;23;20464;-79
2021/06/15 16:43:26;;;;;;;74.95;15.68;;;28.20;1.00;;;;;;6133969;23;20503;-78
2021/06/15 16:45:53;;;;;;;75.90;9.50;;;28.50;1.00;;;;;;6126187;23;20159;-79
2021/06/15 16:48:22;;;;;;;69.60;16.50;;;28.90;1.00;;;;;;6136114;23;20388;-78
2021/06/15 16:50:48;;;;;;;66.77;7.40;;;29.00;1.00;;;;;;6124872;23;20437;-78
2021/06/15 16:53:15;;;;;;;71.63;12.90;;;28.70;1.00;;;;;;6125964;23;20490;-78
2021/06/15 16:55:42;;;;;;;68.67;15.07;;;28.80;1.00;;;;;;6126107;23;20906;-78
2021/06/15 16:58:09;;;;;;;69.37;7.23;;;28.50;1.00;;;;;;6126436;23;20406;-78
2021/06/15 17:00:35;;;;;;;67.73;8.13;;;28.40;1.00;;;;;;6126532;23;20378;-79
2021/06/15 17:03:03;;;;;;;66.00;7.30;;;28.10;1.00;;;;;;6126038;23;20521;-78
2021/06/15 17:05:31;;;;;;;65.90;7.30;;;28.00;1.00;;;;;;6125009;23;20457;-78
2021/06/15 17:07:58;;;;;;;68.60;6.90;;;28.00;1.00;;;;;;6125696;23;20407;-78
2021/06/15 17:10:28;;;;;;;65.90;9.50;;;28.10;1.00;;;;;;6125892;23;20755;-79
2021/06/15 17:12:54;;;;;;;68.37;15.47;;;27.90;1.00;;;;;;6125426;23;20413;-78
2021/06/15 17:15:30;;;;;;;69.30;12.63;;;27.70;1.00;;;;;;6125596;23;20403;-77
2021/06/15 17:17:57;;;;;;;68.23;7.93;;;27.80;1.00;;;;;;6136874;23;20393;-79
2021/06/15 17:20:23;;;;;;;66.27;14.00;;;28.10;1.00;;;;;;6121107;23;20496;-77
2021/06/15 17:22:53;;;;;;;70.07;10.00;;;27.60;1.00;;;;;;6125052;23;20452;-77
2021/06/15 17:25:21;;;;;;;67.77;9.90;;;27.60;1.00;;;;;;6125661;23;20438;-77
2021/06/15 17:27:47;;;;;;;67.53;9.53;;;27.70;1.00;;;;;;6126404;23;20377;-77
2021/06/15 17:30:17;;;;;;;68.00;13.73;;;28.00;1.00;;;;;;6127507;23;20743;-79
2021/06/15 17:32:44;;;;;;;67.13;9.63;;;27.80;1.00;;;;;;6137490;23;20465;-79
2021/06/15 17:35:14;;;;;;;67.37;7.87;;;28.00;1.00;;;;;;6136067;23;20389;-79
2021/06/15 17:37:43;;;;;;;64.13;6.87;;;28.00;1.00;;;;;;6127865;23;20823;-79
2021/06/15 17:40:16;;;;;;;71.60;8.70;;;28.10;1.00;;;;;;6127336;23;20385;-78
2021/06/15 17:42:43;;;;;;;65.47;7.97;;;28.00;1.00;;;;;;6127319;23;20480;-78
2021/06/15 17:45:13;;;;;;;70.37;12.97;;;28.10;1.00;;;;;;6127278;23;20916;-78
2021/06/15 17:47:39;;;;;;;64.40;8.17;;;27.50;1.00;;;;;;6127829;23;20460;-80
2021/06/15 17:50:08;;;;;;;64.90;8.30;;;27.40;1.00;;;;;;6126265;23;20380;-79
2021/06/15 17:52:35;;;;;;;68.03;9.10;;;26.70;1.00;;;;;;6137665;23;20458;-78
2021/06/15 17:55:05;;;;;;;70.93;8.67;;;26.70;1.00;;;;;;6127473;23;20384;-78
2021/06/15 17:57:34;;;;;;;65.17;9.23;;;26.20;1.00;;;;;;6127225;23;20407;-77
2021/06/15 18:00:01;;;;;;;71.90;8.27;;;25.40;1.00;;;;;;6136759;23;20408;-79
2021/06/15 18:02:27;;;;;;;65.27;9.93;;;24.90;1.00;;;;;;6127602;23;20718;-78
2021/06/15 18:04:56;;;;;;;70.00;10.30;;;24.40;1.00;;;;;;6136324;23;20417;-79
2021/06/15 18:07:26;;;;;;;67.23;10.47;;;23.90;3.00;;;;;;6127466;23;20431;-78
2021/06/15 18:09:53;;;;;;;62.00;8.30;;;23.90;4.00;;;;;;6127434;23;20403;-79
2021/06/15 18:12:20;;;;;;;60.57;6.97;;;24.40;4.00;;;;;;6126646;23;20443;-78
2021/06/15 18:14:48;;;;;;;60.07;9.80;;;24.90;3.30;;;;;;6127053;23;20409;-79
2021/06/15 18:17:16;;;;;;;59.57;9.67;;;25.30;1.00;;;;;;6127650;23;20382;-78
2021/06/15 18:19:43;;;;;;;61.60;6.37;;;25.60;1.00;;;;;;6125950;23;20518;-78
2021/06/15 18:22:11;;;;;;;58.60;6.87;;;25.50;1.00;;;;;;6127199;23;20388;-81
2021/06/15 18:24:38;;;;;;;62.00;6.20;;;25.20;1.00;;;;;;6137134;23;20414;-80
2021/06/15 18:27:05;;;;;;;59.07;5.90;;;24.90;1.00;;;;;;6127702;23;20378;-79
2021/06/15 18:29:32;;;;;;;58.70;4.80;;;24.90;2.10;;;;;;6126125;23;20378;-78
2021/06/15 18:32:01;;;;;;;60.63;4.93;;;25.50;1.00;;;;;;6127459;23;20498;-77
2021/06/15 18:34:27;;;;;;;55.90;4.50;;;25.60;1.00;;;;;;6125864;23;20387;-77
2021/06/15 18:36:54;;;;;;;58.87;5.23;;;25.60;1.00;;;;;;6127447;23;20403;-77
2021/06/15 18:39:21;;;;;;;55.23;4.00;;;25.80;1.00;;;;;;6127146;23;20426;-78
2021/06/15 18:41:50;;;;;;;55.97;3.70;;;25.60;1.00;;;;;;6127529;23;20380;-77
2021/06/15 18:44:16;;;;;;;55.30;4.30;;;25.60;1.00;;;;;;6126895;23;20413;-77
2021/06/15 18:46:43;;;;;;;60.33;5.60;;;25.10;1.00;;;;;;6127177;23;20377;-78
2021/06/15 18:49:12;;;;;;;59.70;5.50;;;24.40;1.00;;;;;;6125379;23;20481;-77
2021/06/15 18:51:39;;;;;;;58.43;5.77;;;24.20;1.00;;;;;;6126923;23;20900;-77
2021/06/15 18:54:07;;;;;;;59.17;5.20;;;24.00;3.30;;;;;;6126549;23;20381;-77
2021/06/15 18:56:34;;;;;;;54.30;4.70;;;23.90;2.30;;;;;;6136854;23;20890;-77
2021/06/15 18:59:01;;;;;;;54.73;5.33;;;23.80;4.20;;;;;;6126795;23;20466;-77
2021/06/15 19:01:27;;;;;;;52.97;4.57;;;23.70;1.00;;;;;;6126961;23;20409;-79
2021/06/15 19:03:54;;;;;;;53.60;5.10;;;23.80;3.20;;;;;;6125148;23;21005;-77
2021/06/15 19:06:22;;;;;;;51.60;4.03;;;23.30;3.50;;;;;;6127127;23;20399;-77
2021/06/15 19:08:49;;;;;;;51.03;4.03;;;23.20;6.80;;;;;;6126762;23;20405;-77
2021/06/15 19:11:16;;;;;;;49.73;4.00;;;23.10;6.80;;;;;;6126997;23;20409;-77
2021/06/15 19:13:43;;;;;;;48.43;3.47;;;22.80;6.80;;;;;;6126970;23;20482;-77
2021/06/15 19:16:12;;;;;;;48.40;3.47;;;22.30;7.50;;;;;;6127150;23;20408;-78
2021/06/15 19:18:39;;;;;;;45.43;3.20;;;22.10;7.50;;;;;;6125730;23;20380;-77
2021/06/15 19:21:06;;;;;;;43.20;3.33;;;22.30;10.10;;;;;;6136464;23;20499;-77
2021/06/15 19:23:34;;;;;;;39.53;2.63;;;22.10;10.00;;;;;;6126425;23;20405;-77
2021/06/15 19:26:01;;;;;;;43.43;2.77;;;21.90;10.30;;;;;;6126993;23;20406;-77
2021/06/15 19:28:28;;;;;;;41.77;3.03;;;21.50;11.40;;;;;;6135975;23;20419;-77
2021/06/15 19:30:55;;;;;;;41.73;2.70;;;21.00;14.50;;;;;;6126192;23;20403;-77
2021/06/15 19:33:26;;;;;;;38.27;2.93;;;20.60;16.80;;;;;;6126625;23;20429;-77
